Time;durP1;ratioP1;P1;durP2;ratioP2;P2;SDS_P1;SDS_P2;PMS_P1;PMS_P2;Temp;Humidity;BMP_temperature;BMP_pressure;BME280_temperature;BME280_humidity;BME280_pressure;Samples;Min_cycle;Max_cycle;Signal;HPM_P1;HPM_P2
2023/09/06 00:02:09;;;;;;;4.20;1.70;;;15.60;99.90;;;;;;5089941;28;20393;-87
2023/09/06 00:04:34;;;;;;;4.93;2.30;;;15.60;99.90;;;;;;5088675;28;20095;-87
2023/09/06 00:07:00;;;;;;;8.05;1.45;;;15.70;99.90;;;;;;5089504;28;20127;-86
2023/09/06 00:09:26;;;;;;;;;;;15.70;99.90;;;;;;5090738;28;20030;-86
2023/09/06 00:11:51;;;;;;;4.72;1.88;;;15.70;99.90;;;;;;5090302;28;19908;-86
2023/09/06 00:14:19;;;;;;;3.47;1.83;;;15.60;99.90;;;;;;5090602;28;20019;-89
2023/09/06 00:16:46;;;;;;;4.93;2.25;;;15.60;99.90;;;;;;5089238;28;20056;-87
2023/09/06 00:19:14;;;;;;;6.90;2.20;;;15.60;99.90;;;;;;5090413;28;20034;-88
2023/09/06 00:21:41;;;;;;;3.38;1.33;;;15.60;99.90;;;;;;5090122;28;20016;-87
2023/09/06 00:24:12;;;;;;;2.78;1.38;;;15.60;99.90;;;;;;5089581;28;20067;-84
2023/09/06 00:26:39;;;;;;;3.10;1.42;;;15.60;99.90;;;;;;5089400;28;20040;-86
2023/09/06 00:29:07;;;;;;;3.03;1.60;;;15.60;99.90;;;;;;5089000;28;20119;-88
2023/09/06 00:31:33;;;;;;;2.80;1.55;;;15.70;99.90;;;;;;5089804;28;20055;-87
2023/09/06 00:33:58;;;;;;;4.80;1.77;;;15.70;99.90;;;;;;5089737;28;20477;-85
2023/09/06 00:36:28;;;;;;;3.30;1.88;;;15.80;99.90;;;;;;5089668;28;20035;-87
2023/09/06 00:38:53;;;;;;;3.28;1.17;;;15.80;99.90;;;;;;5090220;28;20103;-86
2023/09/06 00:41:20;;;;;;;2.38;1.15;;;15.90;99.90;;;;;;5089325;28;20178;-88
2023/09/06 00:43:45;;;;;;;2.53;1.17;;;15.90;99.90;;;;;;5090034;28;20024;-86
2023/09/06 00:46:11;;;;;;;5.15;1.83;;;15.90;99.90;;;;;;5088900;28;20074;-87
2023/09/06 00:48:37;;;;;;;3.10;1.10;;;16.00;99.90;;;;;;5089673;28;20146;-86
2023/09/06 00:51:04;;;;;;;7.28;1.83;;;16.10;99.90;;;;;;5089892;28;20510;-87
2023/09/06 00:53:31;;;;;;;3.50;1.60;;;16.10;99.90;;;;;;5089937;28;20020;-86
2023/09/06 00:55:58;;;;;;;5.65;1.30;;;16.20;99.90;;;;;;5088357;28;20036;-86
2023/09/06 00:58:26;;;;;;;5.03;1.95;;;16.30;99.90;;;;;;5089886;28;20016;-87
2023/09/06 01:00:52;;;;;;;2.70;1.40;;;16.30;99.90;;;;;;5090415;28;20028;-88
2023/09/06 01:03:18;;;;;;;3.08;1.60;;;16.30;99.90;;;;;;5093717;28;20027;-88
2023/09/06 01:06:09;;;;;;;6.88;1.75;;;16.30;99.90;;;;;;5092321;28;20034;-86
2023/09/06 01:08:39;;;;;;;5.28;1.70;;;16.30;99.90;;;;;;5092032;28;20036;-87
2023/09/06 01:11:22;;;;;;;3.35;1.60;;;16.20;99.90;;;;;;5093247;28;20035;-88
2023/09/06 01:13:53;;;;;;;4.85;1.95;;;16.10;99.90;;;;;;5093605;28;20073;-87
2023/09/06 01:16:28;;;;;;;4.20;1.48;;;16.10;99.90;;;;;;5092183;28;20055;-87
2023/09/06 01:18:54;;;;;;;6.75;1.55;;;16.00;99.90;;;;;;5094096;28;20024;-89
2023/09/06 01:21:25;;;;;;;2.95;1.25;;;15.90;99.90;;;;;;5093480;28;20110;-88
2023/09/06 01:23:52;;;;;;;5.05;1.30;;;15.80;99.90;;;;;;5092950;28;20166;-88
2023/09/06 01:26:18;;;;;;;4.78;1.65;;;15.80;99.90;;;;;;5093382;28;20456;-90
2023/09/06 01:28:44;;;;;;;3.10;1.58;;;15.80;99.90;;;;;;5093430;28;20157;-87
2023/09/06 01:31:10;;;;;;;5.25;1.73;;;15.70;99.90;;;;;;5093705;28;20102;-88
2023/09/06 01:33:36;;;;;;;3.45;1.50;;;15.60;99.90;;;;;;5093938;28;20028;-88
2023/09/06 01:36:02;;;;;;;3.58;1.35;;;15.60;99.90;;;;;;5092256;28;20557;-86
2023/09/06 01:38:27;;;;;;;2.88;1.50;;;15.60;99.90;;;;;;5093607;28;20111;-88
2023/09/06 01:40:53;;;;;;;;;;;15.60;99.90;;;;;;5092750;28;20036;-90
2023/09/06 01:43:19;;;;;;;5.50;1.60;;;15.60;99.90;;;;;;5092265;28;19926;-89
2023/09/06 01:45:50;;;;;;;6.35;1.58;;;15.50;99.90;;;;;;5092103;28;20028;-89
2023/09/06 01:48:19;;;;;;;4.72;2.15;;;15.60;99.90;;;;;;5092632;28;20028;-90
2023/09/06 01:50:45;;;;;;;3.63;1.92;;;15.50;99.90;;;;;;5092127;28;20555;-87
2023/09/06 01:53:13;;;;;;;3.63;1.40;;;15.50;99.90;;;;;;5092662;28;20050;-88
2023/09/06 01:55:41;;;;;;;3.22;1.60;;;15.40;99.90;;;;;;5092693;28;20073;-86
2023/09/06 01:58:08;;;;;;;5.25;1.50;;;15.40;99.90;;;;;;5092461;28;20069;-86
2023/09/06 02:00:36;;;;;;;5.80;1.85;;;15.40;99.90;;;;;;5091328;28;20093;-88
2023/09/06 02:03:02;;;;;;;6.03;1.70;;;15.40;99.90;;;;;;5092990;28;20091;-85
2023/09/06 02:05:30;;;;;;;5.15;1.85;;;15.30;99.90;;;;;;5092753;28;20552;-87
2023/09/06 02:07:55;;;;;;;8.52;2.25;;;15.30;99.90;;;;;;5091730;28;20040;-88
2023/09/06 02:10:21;;;;;;;8.25;1.92;;;15.30;99.90;;;;;;5092243;28;20070;-85
2023/09/06 02:12:47;;;;;;;3.80;1.52;;;15.20;99.90;;;;;;5090872;28;20078;-86
2023/09/06 02:15:14;;;;;;;3.92;1.63;;;15.20;99.90;;;;;;5092008;28;20162;-86
2023/09/06 02:17:44;;;;;;;5.95;1.58;;;15.20;99.90;;;;;;5092173;28;20514;-86
2023/09/06 02:20:24;;;;;;;3.88;1.98;;;15.10;99.90;;;;;;5092193;28;20021;-88
2023/09/06 02:22:56;;;;;;;3.33;1.65;;;15.10;99.90;;;;;;5091619;28;20515;-89
2023/09/06 02:25:30;;;;;;;3.30;1.73;;;15.10;99.90;;;;;;5091748;28;20020;-89
2023/09/06 02:27:56;;;;;;;3.00;1.50;;;15.10;99.90;;;;;;5091596;28;20403;-88
2023/09/06 02:30:22;;;;;;;6.22;1.40;;;15.10;99.90;;;;;;5092985;28;20389;-89
2023/09/06 02:32:51;;;;;;;2.60;1.40;;;15.00;99.90;;;;;;5092703;28;20031;-90
2023/09/06 02:35:17;;;;;;;7.55;2.03;;;15.00;99.90;;;;;;5092514;28;20055;-88
2023/09/06 02:37:43;;;;;;;3.72;1.63;;;15.00;99.90;;;;;;5091377;28;20063;-90
2023/09/06 02:40:12;;;;;;;6.32;1.90;;;15.00;99.90;;;;;;5091643;28;20020;-89
2023/09/06 02:42:38;;;;;;;5.18;1.75;;;14.90;99.90;;;;;;5092876;28;20034;-89
2023/09/06 02:45:07;;;;;;;4.82;1.90;;;14.90;99.90;;;;;;5092519;28;20564;-88
2023/09/06 02:47:34;;;;;;;3.63;1.80;;;14.90;99.90;;;;;;5090983;28;20039;-89
2023/09/06 02:50:00;;;;;;;4.30;1.77;;;14.80;99.90;;;;;;5092564;28;20026;-88
2023/09/06 02:52:28;;;;;;;4.78;1.90;;;14.80;99.90;;;;;;5091713;28;20032;-88
2023/09/06 02:54:57;;;;;;;3.72;1.70;;;14.80;99.90;;;;;;5094842;28;20031;-88
2023/09/06 02:57:24;;;;;;;2.50;1.65;;;14.80;99.90;;;;;;5090927;28;20452;-90
2023/09/06 02:59:51;;;;;;;6.72;1.90;;;14.70;99.90;;;;;;5091570;28;20103;-89
2023/09/06 03:02:18;;;;;;;2.97;1.80;;;14.70;99.90;;;;;;5090460;28;20028;-89
2023/09/06 03:04:44;;;;;;;6.13;2.03;;;14.70;99.90;;;;;;5091223;28;20381;-86
2023/09/06 03:07:09;;;;;;;;;;;14.70;99.90;;;;;;5091515;28;20042;-88
2023/09/06 03:09:36;;;;;;;3.33;1.63;;;14.60;99.90;;;;;;5090259;28;20360;-88
2023/09/06 03:12:16;;;;;;;4.30;1.98;;;14.60;99.90;;;;;;5090647;28;20058;-90
2023/09/06 03:14:44;;;;;;;6.18;1.60;;;14.60;99.90;;;;;;5091991;28;20020;-90
2023/09/06 03:17:13;;;;;;;4.20;1.80;;;14.60;99.90;;;;;;5092521;28;20770;-88
2023/09/06 03:19:45;;;;;;;4.55;2.13;;;14.60;99.90;;;;;;5091242;28;20032;-88
2023/09/06 03:22:12;;;;;;;4.68;1.80;;;14.50;99.90;;;;;;5090547;28;20066;-87
2023/09/06 03:24:40;;;;;;;8.60;1.95;;;14.50;99.90;;;;;;5089892;28;20039;-87
2023/09/06 03:27:07;;;;;;;3.70;1.60;;;14.40;99.90;;;;;;5090286;28;20063;-87
2023/09/06 03:29:36;;;;;;;6.93;2.13;;;14.40;99.90;;;;;;5089886;28;20020;-88
2023/09/06 03:32:03;;;;;;;3.33;1.67;;;14.40;99.90;;;;;;5090847;28;20039;-89
2023/09/06 03:34:29;;;;;;;5.47;2.17;;;14.30;99.90;;;;;;5090281;28;20111;-88
2023/09/06 03:36:55;;;;;;;;;;;14.30;99.90;;;;;;5089967;28;20115;-86
2023/09/06 03:39:21;;;;;;;3.97;1.88;;;14.30;99.90;;;;;;5090529;28;19904;-85
2023/09/06 03:41:48;;;;;;;5.35;1.90;;;14.20;99.90;;;;;;5091000;28;20024;-87
2023/09/06 03:44:14;;;;;;;3.95;1.90;;;14.20;99.90;;;;;;5089342;28;20021;-88
2023/09/06 03:46:39;;;;;;;;;;;14.30;99.90;;;;;;5091211;28;20040;-86
2023/09/06 03:49:05;;;;;;;3.55;1.83;;;14.30;99.90;;;;;;5089757;28;19911;-89
2023/09/06 03:51:31;;;;;;;;;;;14.30;99.90;;;;;;5091852;28;20024;-90
2023/09/06 03:53:58;;;;;;;9.32;2.08;;;14.30;99.90;;;;;;5090101;28;19904;-89
2023/09/06 03:56:24;;;;;;;4.35;2.10;;;14.30;99.90;;;;;;5091221;28;20047;-89
2023/09/06 03:58:53;;;;;;;;;;;14.30;99.90;;;;;;5091368;28;20056;-89
2023/09/06 04:01:19;;;;;;;4.95;2.53;;;14.30;99.90;;;;;;5091023;28;20376;-89
2023/09/06 04:03:50;;;;;;;;;;;14.30;99.90;;;;;;5091264;28;20028;-87
2023/09/06 04:06:16;;;;;;;3.88;1.85;;;14.30;99.90;;;;;;5089510;28;19912;-88
2023/09/06 04:08:43;;;;;;;4.70;2.10;;;14.40;99.90;;;;;;5090709;28;20012;-90
2023/09/06 04:11:11;;;;;;;3.80;2.08;;;14.30;99.90;;;;;;5089460;28;20065;-87
2023/09/06 04:13:37;;;;;;;3.88;2.45;;;14.40;99.90;;;;;;5089619;28;20028;-89
2023/09/06 04:16:05;;;;;;;;;;;14.40;99.90;;;;;;5090833;28;20081;-89
2023/09/06 04:18:31;;;;;;;4.93;1.80;;;14.40;99.90;;;;;;5089521;28;19915;-88
2023/09/06 04:20:59;;;;;;;;;;;14.40;99.90;;;;;;5090095;28;20024;-88
2023/09/06 04:23:25;;;;;;;5.95;1.63;;;14.40;99.90;;;;;;5089593;28;19908;-90
2023/09/06 04:25:51;;;;;;;;;;;14.40;99.90;;;;;;5090931;28;20601;-87
2023/09/06 04:28:20;;;;;;;8.65;2.05;;;14.40;99.90;;;;;;5089949;28;20279;-87
2023/09/06 04:30:46;;;;;;;4.22;1.90;;;14.50;99.90;;;;;;5090816;28;20040;-88
2023/09/06 04:33:14;;;;;;;4.25;1.85;;;14.50;99.90;;;;;;5089443;28;20416;-88
2023/09/06 04:35:51;;;;;;;6.15;1.80;;;14.50;99.90;;;;;;5092362;28;20510;-87
2023/09/06 04:38:23;;;;;;;4.28;1.80;;;14.50;99.90;;;;;;5093641;28;20048;-76
2023/09/06 04:40:49;;;;;;;5.78;1.77;;;14.60;99.90;;;;;;5092297;28;20029;-80
2023/09/06 04:43:18;;;;;;;;;;;14.70;99.90;;;;;;5093241;28;20020;-83
2023/09/06 04:45:44;;;;;;;5.68;2.30;;;14.70;99.90;;;;;;5091203;28;20407;-78
2023/09/06 04:48:11;;;;;;;4.10;1.75;;;14.80;99.90;;;;;;5091459;28;20056;-87
2023/09/06 04:50:41;;;;;;;6.32;2.40;;;14.90;99.90;;;;;;5093438;28;20027;-86
2023/09/06 04:53:07;;;;;;;5.65;1.90;;;15.10;99.90;;;;;;5094474;28;20024;-89
2023/09/06 04:55:35;;;;;;;8.45;1.75;;;15.20;99.90;;;;;;5093760;28;20040;-86
2023/09/06 04:58:04;;;;;;;3.60;2.10;;;15.50;99.90;;;;;;5093878;28;20027;-86
2023/09/06 05:00:32;;;;;;;4.20;1.70;;;15.90;99.90;;;;;;5093798;28;20481;-87
2023/09/06 05:02:58;;;;;;;3.35;1.75;;;16.20;99.90;;;;;;5093998;28;20067;-85
2023/09/06 05:05:24;;;;;;;5.32;2.22;;;16.50;99.90;;;;;;5093762;28;20055;-87
2023/09/06 05:07:50;;;;;;;4.35;2.03;;;17.00;99.90;;;;;;5093439;28;20467;-87
2023/09/06 05:10:17;;;;;;;4.20;1.80;;;17.30;99.90;;;;;;5094356;28;20052;-83
2023/09/06 05:12:43;;;;;;;3.03;1.65;;;17.60;99.90;;;;;;5093037;28;20040;-84
2023/09/06 05:15:09;;;;;;;3.33;1.80;;;18.00;99.90;;;;;;5092960;28;20047;-84
2023/09/06 05:17:35;;;;;;;11.35;2.20;;;18.60;99.90;;;;;;5092654;28;20040;-83
2023/09/06 05:20:33;;;;;;;10.85;1.77;;;19.30;99.90;;;;;;5092918;28;20016;-83
2023/09/06 05:23:12;;;;;;;7.43;2.30;;;20.00;99.40;;;;;;5092784;28;20692;-83
2023/09/06 05:25:39;;;;;;;7.95;1.60;;;20.50;97.60;;;;;;5091456;28;20032;-83
2023/09/06 05:28:10;;;;;;;3.42;1.80;;;20.80;96.90;;;;;;5093864;28;20031;-83
2023/09/06 05:30:44;;;;;;;4.80;1.60;;;21.10;96.30;;;;;;5093907;28;20062;-82
2023/09/06 05:33:10;;;;;;;4.22;1.90;;;21.40;94.80;;;;;;5093571;28;20036;-83
2023/09/06 05:35:37;;;;;;;4.20;1.60;;;21.60;93.20;;;;;;5092490;28;20500;-83
2023/09/06 05:38:03;;;;;;;9.27;2.33;;;22.00;91.90;;;;;;5092510;28;20012;-84
2023/09/06 05:40:30;;;;;;;3.00;1.70;;;22.10;91.10;;;;;;5093046;28;20111;-82
2023/09/06 05:42:56;;;;;;;9.23;2.08;;;22.40;89.90;;;;;;5092459;28;20027;-82
2023/09/06 05:45:22;;;;;;;3.45;1.95;;;22.60;89.30;;;;;;5091680;28;20392;-83
2023/09/06 05:47:49;;;;;;;6.30;1.95;;;22.80;89.50;;;;;;5091260;28;20039;-84
2023/09/06 05:50:16;;;;;;;12.63;2.17;;;22.90;88.00;;;;;;5081242;28;20031;-83
2023/09/06 05:52:41;;;;;;;5.75;1.23;;;23.00;87.30;;;;;;5072226;28;20025;-84
2023/09/06 05:55:08;;;;;;;4.20;1.67;;;23.10;86.00;;;;;;5071686;28;20028;-84
2023/09/06 05:57:34;;;;;;;5.15;1.83;;;23.20;85.90;;;;;;5074148;28;20085;-84
2023/09/06 06:00:01;;;;;;;3.42;2.08;;;23.30;84.60;;;;;;5090750;28;20032;-84
2023/09/06 06:02:29;;;;;;;3.10;2.08;;;23.60;84.20;;;;;;5092189;28;20385;-84
2023/09/06 06:04:55;;;;;;;3.13;1.42;;;23.80;83.70;;;;;;5082769;28;20073;-84
2023/09/06 06:07:21;;;;;;;2.97;1.80;;;23.90;81.60;;;;;;5085520;28;20036;-84
2023/09/06 06:09:46;;;;;;;3.97;1.63;;;24.10;77.80;;;;;;5085688;27;20543;-83
2023/09/06 06:12:13;;;;;;;2.67;1.73;;;24.40;75.50;;;;;;5086041;28;20063;-84
2023/09/06 06:14:40;;;;;;;4.93;1.50;;;24.80;73.10;;;;;;5089231;28;20020;-84
2023/09/06 06:17:06;;;;;;;4.05;1.67;;;25.30;71.00;;;;;;5107257;28;20441;-84
2023/09/06 06:19:35;;;;;;;5.70;1.85;;;25.90;68.50;;;;;;5112159;28;20111;-84
2023/09/06 06:22:02;;;;;;;4.57;1.63;;;26.20;66.00;;;;;;5112006;28;20377;-84
2023/09/06 06:24:28;;;;;;;3.17;1.77;;;26.60;64.70;;;;;;5111996;28;20020;-84
2023/09/06 06:26:54;;;;;;;3.13;1.65;;;27.00;63.30;;;;;;5110400;28;20036;-85
2023/09/06 06:29:20;;;;;;;8.73;1.65;;;27.30;62.00;;;;;;5111771;28;20084;-84
2023/09/06 06:31:45;;;;;;;6.95;2.00;;;27.60;61.20;;;;;;5112001;27;20031;-85
2023/09/06 06:34:13;;;;;;;2.28;1.48;;;27.90;59.20;;;;;;5112134;28;20023;-84
2023/09/06 06:36:39;;;;;;;3.78;1.45;;;28.10;58.60;;;;;;5110490;28;20451;-84
2023/09/06 06:39:05;;;;;;;2.22;1.45;;;28.40;56.30;;;;;;5111602;27;20055;-85
2023/09/06 06:41:31;;;;;;;2.60;1.80;;;28.60;54.80;;;;;;5111818;28;20027;-85
2023/09/06 06:43:56;;;;;;;3.72;1.55;;;28.80;51.90;;;;;;5111372;28;20031;-82
2023/09/06 06:46:29;;;;;;;3.00;1.52;;;29.20;51.80;;;;;;5109956;28;20105;-80
2023/09/06 06:48:56;;;;;;;2.70;1.60;;;29.40;50.60;;;;;;5111019;28;20035;-82
2023/09/06 06:51:25;;;;;;;5.35;1.80;;;29.50;50.20;;;;;;5110904;28;20027;-82
2023/09/06 06:53:50;;;;;;;5.95;1.58;;;29.60;50.70;;;;;;5110176;28;20023;-81
2023/09/06 06:56:21;;;;;;;8.68;2.10;;;29.90;50.60;;;;;;5109877;28;20027;-82
2023/09/06 06:58:48;;;;;;;5.05;2.20;;;30.20;48.80;;;;;;5110590;28;20070;-82
2023/09/06 07:01:14;;;;;;;5.28;1.90;;;30.50;48.90;;;;;;5110467;28;20031;-82
2023/09/06 07:03:40;;;;;;;4.32;2.00;;;30.80;48.40;;;;;;5111710;28;20027;-82
2023/09/06 07:06:06;;;;;;;11.27;3.17;;;30.90;47.20;;;;;;5111891;28;20031;-82
2023/09/06 07:08:32;;;;;;;5.63;2.42;;;31.40;45.70;;;;;;5110525;28;20118;-82
2023/09/06 07:10:59;;;;;;;5.65;2.42;;;32.00;44.10;;;;;;5110296;28;20110;-82
2023/09/06 07:13:25;;;;;;;4.30;2.47;;;32.20;43.40;;;;;;5110327;28;20686;-83
2023/09/06 07:15:51;;;;;;;6.70;2.03;;;32.30;43.10;;;;;;5109624;28;20071;-82
2023/09/06 07:18:18;;;;;;;7.65;2.25;;;32.40;43.40;;;;;;5107697;28;20480;-83
2023/09/06 07:20:44;;;;;;;10.48;2.50;;;32.40;42.50;;;;;;5106927;28;20062;-82
2023/09/06 07:23:09;;;;;;;5.22;2.20;;;32.40;42.10;;;;;;5108950;28;20023;-84
2023/09/06 07:25:35;;;;;;;12.43;2.60;;;32.50;42.10;;;;;;5108220;28;20511;-84
2023/09/06 07:28:02;;;;;;;3.88;1.80;;;32.80;41.80;;;;;;5107198;28;20038;-85
2023/09/06 07:30:28;;;;;;;6.32;2.10;;;32.80;41.80;;;;;;5107854;28;20051;-82
2023/09/06 07:32:53;;;;;;;4.50;2.17;;;32.80;40.90;;;;;;5108787;28;20481;-85
2023/09/06 07:35:19;;;;;;;4.45;1.90;;;33.10;41.50;;;;;;5108646;28;20027;-84
2023/09/06 07:37:45;;;;;;;6.20;2.33;;;33.30;41.00;;;;;;5110144;28;20031;-84
2023/09/06 07:40:11;;;;;;;7.38;1.90;;;33.30;40.40;;;;;;5109924;27;20341;-82
2023/09/06 07:42:40;;;;;;;5.07;1.92;;;33.60;40.50;;;;;;5110021;28;20034;-83
2023/09/06 07:45:07;;;;;;;4.13;1.63;;;34.00;39.80;;;;;;5109895;28;20157;-85
2023/09/06 07:47:33;;;;;;;3.00;2.08;;;34.50;39.80;;;;;;5109766;28;20519;-84
2023/09/06 07:49:59;;;;;;;9.05;1.80;;;34.90;38.70;;;;;;5109638;28;20103;-84
2023/09/06 07:52:25;;;;;;;4.97;2.10;;;34.30;37.90;;;;;;5109492;28;20173;-85
2023/09/06 07:54:50;;;;;;;7.70;2.38;;;34.40;38.20;;;;;;5109556;28;20031;-84
2023/09/06 07:57:16;;;;;;;3.42;2.03;;;34.70;38.10;;;;;;5109663;28;20032;-84
2023/09/06 07:59:42;;;;;;;8.00;2.05;;;34.90;37.80;;;;;;5109979;28;20028;-85
2023/09/06 08:02:08;;;;;;;5.15;1.90;;;35.30;38.20;;;;;;5108038;28;20407;-83
2023/09/06 08:04:34;;;;;;;5.35;2.17;;;35.30;37.30;;;;;;5109717;28;20062;-84
2023/09/06 08:06:59;;;;;;;6.57;2.10;;;35.60;37.10;;;;;;5108069;28;20108;-85
2023/09/06 08:09:25;;;;;;;8.38;2.40;;;35.50;36.90;;;;;;5107831;28;20062;-84
2023/09/06 08:11:51;;;;;;;9.38;2.53;;;35.40;37.40;;;;;;5109355;28;20031;-84
2023/09/06 08:14:17;;;;;;;5.90;2.15;;;35.90;36.80;;;;;;5108018;28;20030;-83
2023/09/06 08:16:43;;;;;;;11.15;1.92;;;35.80;36.90;;;;;;5107496;28;20048;-84
2023/09/06 08:19:08;;;;;;;8.32;1.92;;;35.60;35.20;;;;;;5109362;28;20019;-83
2023/09/06 08:21:34;;;;;;;5.22;2.30;;;36.00;35.00;;;;;;5107680;28;20034;-84
2023/09/06 08:24:02;;;;;;;3.58;1.80;;;35.90;35.20;;;;;;5109632;28;20094;-84
2023/09/06 08:26:28;;;;;;;3.10;1.55;;;35.50;34.10;;;;;;5101650;28;20393;-84
2023/09/06 08:28:54;;;;;;;5.75;1.83;;;35.20;34.40;;;;;;5076699;28;20507;-84
2023/09/06 08:31:20;;;;;;;5.05;2.05;;;34.80;34.10;;;;;;5083517;28;20060;-84
2023/09/06 08:33:46;;;;;;;2.35;1.80;;;34.50;34.60;;;;;;5088920;28;20093;-83
2023/09/06 08:36:12;;;;;;;4.10;1.83;;;34.70;35.50;;;;;;5088290;28;20492;-84
2023/09/06 08:38:39;;;;;;;3.92;1.95;;;34.90;35.40;;;;;;5089206;28;20113;-82
2023/09/06 08:41:07;;;;;;;5.30;1.85;;;34.90;35.50;;;;;;5089525;28;20056;-84
2023/09/06 08:43:36;;;;;;;3.90;2.00;;;34.40;34.50;;;;;;5089093;28;20492;-82
2023/09/06 08:46:08;;;;;;;3.28;1.70;;;33.90;35.80;;;;;;5082838;28;20036;-82
2023/09/06 08:48:37;;;;;;;2.58;1.80;;;34.00;36.60;;;;;;5075827;28;20481;-82
2023/09/06 08:51:04;;;;;;;5.75;1.80;;;34.10;37.20;;;;;;5069320;28;20090;-81
2023/09/06 08:53:34;;;;;;;3.10;1.83;;;34.20;36.20;;;;;;5067347;28;20493;-82
2023/09/06 08:56:01;;;;;;;3.33;1.90;;;34.30;37.10;;;;;;5084631;28;20165;-82
2023/09/06 08:58:27;;;;;;;2.92;1.77;;;34.60;36.00;;;;;;5067678;28;20027;-82
2023/09/06 09:00:55;;;;;;;3.42;1.48;;;34.40;37.70;;;;;;5068520;28;20032;-82
2023/09/06 09:03:20;;;;;;;7.45;2.17;;;34.50;36.40;;;;;;5067335;28;20024;-82
2023/09/06 09:05:46;;;;;;;3.85;1.55;;;34.30;37.10;;;;;;5067102;28;20037;-82
2023/09/06 09:08:11;;;;;;;4.00;1.48;;;34.50;35.80;;;;;;5067985;28;20443;-81
2023/09/06 09:10:37;;;;;;;2.53;1.65;;;34.00;36.80;;;;;;5069635;28;20024;-83
2023/09/06 09:13:03;;;;;;;3.72;1.35;;;33.80;36.20;;;;;;5069154;28;20036;-82
2023/09/06 09:15:33;;;;;;;3.63;1.77;;;33.80;36.20;;;;;;5068293;28;20048;-81
2023/09/06 09:18:08;;;;;;;2.97;1.42;;;33.80;35.80;;;;;;5067871;28;20416;-82
2023/09/06 09:20:37;;;;;;;;;;;34.30;36.70;;;;;;5068116;28;20041;-82
2023/09/06 09:23:03;;;;;;;3.08;1.60;;;34.40;36.80;;;;;;5071848;28;19908;-84
2023/09/06 09:25:28;;;;;;;3.25;1.58;;;34.20;34.70;;;;;;5073093;28;20082;-83
2023/09/06 09:27:56;;;;;;;3.25;1.35;;;33.90;35.50;;;;;;5072219;28;20036;-83
2023/09/06 09:30:22;;;;;;;3.78;1.80;;;33.80;36.90;;;;;;5088871;28;20039;-84
2023/09/06 09:32:48;;;;;;;3.03;1.52;;;33.60;36.10;;;;;;5071324;28;20508;-81
2023/09/06 09:35:14;;;;;;;3.33;1.60;;;33.50;36.50;;;;;;5071977;28;20063;-84
2023/09/06 09:37:41;;;;;;;5.57;1.85;;;33.60;36.00;;;;;;5074341;28;20020;-83
2023/09/06 09:40:32;;;;;;;4.95;2.17;;;33.70;37.10;;;;;;5071551;28;20076;-84
2023/09/06 09:43:00;;;;;;;2.90;1.92;;;34.20;35.20;;;;;;5073331;28;20055;-83
2023/09/06 09:45:30;;;;;;;2.47;1.58;;;34.30;36.20;;;;;;5072398;28;20029;-83
2023/09/06 09:47:57;;;;;;;4.72;1.70;;;34.50;35.80;;;;;;5072836;28;20028;-84
2023/09/06 09:50:25;;;;;;;2.35;1.58;;;34.80;36.70;;;;;;5073017;28;20466;-83
2023/09/06 09:52:52;;;;;;;3.13;1.52;;;35.20;36.10;;;;;;5071810;28;20080;-82
2023/09/06 09:55:20;;;;;;;3.38;1.58;;;35.40;35.20;;;;;;5071796;28;20099;-83
2023/09/06 09:57:46;;;;;;;3.65;2.08;;;35.40;34.60;;;;;;5070258;28;20029;-82
2023/09/06 10:00:17;;;;;;;4.60;1.85;;;35.50;34.50;;;;;;5071257;28;20032;-83
2023/09/06 10:02:45;;;;;;;3.33;1.90;;;35.70;34.80;;;;;;5072569;28;20547;-83
2023/09/06 10:05:16;;;;;;;3.72;1.58;;;35.20;34.10;;;;;;5073208;28;20095;-83
2023/09/06 10:07:42;;;;;;;9.05;1.98;;;34.70;34.80;;;;;;5071775;28;20040;-82
2023/09/06 10:10:12;;;;;;;13.75;2.28;;;34.20;35.20;;;;;;5071781;28;20393;-83
2023/09/06 10:12:45;;;;;;;5.82;2.00;;;34.30;35.70;;;;;;5070395;28;20515;-84
2023/09/06 10:15:14;;;;;;;6.25;1.92;;;34.20;34.80;;;;;;5072133;28;20033;-83
2023/09/06 10:17:41;;;;;;;7.80;1.50;;;33.70;35.50;;;;;;5071501;28;20029;-82
2023/09/06 10:20:12;;;;;;;4.53;1.88;;;33.60;36.50;;;;;;5069863;28;20028;-83
2023/09/06 10:22:42;;;;;;;3.40;1.65;;;33.40;36.50;;;;;;5069850;28;20382;-83
2023/09/06 10:25:10;;;;;;;3.88;1.80;;;32.50;37.50;;;;;;5070624;28;20039;-82
2023/09/06 10:27:51;;;;;;;4.18;1.67;;;31.80;38.60;;;;;;5069670;28;20040;-83
2023/09/06 10:30:28;;;;;;;3.70;1.65;;;31.50;39.30;;;;;;5069802;28;20020;-83
2023/09/06 10:32:54;;;;;;;6.63;2.30;;;31.10;39.70;;;;;;5069538;28;20527;-82
2023/09/06 10:35:23;;;;;;;5.28;2.00;;;30.70;40.00;;;;;;5086747;28;20043;-84
2023/09/06 10:38:10;;;;;;;4.03;1.95;;;30.40;41.30;;;;;;5071247;28;20560;-83
2023/09/06 10:40:51;;;;;;;3.55;2.05;;;30.00;42.10;;;;;;5069680;28;20067;-82
2023/09/06 10:43:29;;;;;;;4.15;2.00;;;30.00;42.30;;;;;;5071129;28;20044;-84
2023/09/06 10:45:56;;;;;;;3.28;1.70;;;29.90;41.80;;;;;;5069580;28;20120;-83
2023/09/06 10:48:23;;;;;;;3.83;1.65;;;29.90;42.60;;;;;;5070645;28;20481;-84
2023/09/06 10:51:06;;;;;;;2.53;1.50;;;29.60;41.80;;;;;;5070906;28;20043;-82
2023/09/06 10:53:33;;;;;;;3.30;1.65;;;29.30;43.10;;;;;;5086122;28;20028;-83
2023/09/06 10:56:01;;;;;;;3.53;1.95;;;29.10;44.80;;;;;;5103559;28;20036;-83
2023/09/06 10:58:33;;;;;;;8.20;1.92;;;29.10;44.80;;;;;;5101308;28;20020;-84
2023/09/06 11:01:18;;;;;;;4.50;2.10;;;29.20;45.50;;;;;;5090832;28;20023;-84
2023/09/06 11:03:50;;;;;;;4.95;1.88;;;29.10;43.30;;;;;;5101115;28;20031;-82
2023/09/06 11:06:15;;;;;;;7.03;2.03;;;28.90;45.10;;;;;;5099568;28;20080;-83
2023/09/06 11:08:41;;;;;;;8.30;1.92;;;29.00;46.00;;;;;;5088000;28;20044;-84
2023/09/06 11:11:09;;;;;;;3.28;1.95;;;29.00;45.40;;;;;;5082387;28;20103;-83
2023/09/06 11:13:39;;;;;;;5.05;1.95;;;29.00;45.30;;;;;;5086294;28;20046;-84
2023/09/06 11:16:14;;;;;;;3.95;1.90;;;29.10;44.80;;;;;;5080284;28;20131;-83
2023/09/06 11:18:47;;;;;;;4.40;1.80;;;28.90;44.70;;;;;;5084999;28;20415;-82
2023/09/06 11:21:19;;;;;;;2.50;1.40;;;28.90;45.40;;;;;;5090644;28;20441;-84
2023/09/06 11:23:47;;;;;;;2.30;1.45;;;28.70;43.70;;;;;;5089147;28;20028;-83
2023/09/06 11:26:13;;;;;;;2.40;1.20;;;28.60;44.70;;;;;;5089295;28;20039;-83
2023/09/06 11:28:42;;;;;;;2.53;1.30;;;28.50;45.10;;;;;;5088870;28;20062;-83
2023/09/06 11:31:28;;;;;;;3.35;1.70;;;28.40;44.40;;;;;;5089163;28;20126;-86
2023/09/06 11:34:03;;;;;;;3.20;1.80;;;28.30;45.00;;;;;;5089139;28;20392;-84
2023/09/06 11:36:36;;;;;;;7.13;2.05;;;28.10;45.40;;;;;;5088207;28;20123;-83
2023/09/06 11:39:15;;;;;;;7.03;1.52;;;28.10;47.00;;;;;;5090452;28;20028;-84
2023/09/06 11:41:43;;;;;;;4.72;1.70;;;28.10;44.80;;;;;;5088845;28;20081;-85
2023/09/06 11:44:13;;;;;;;5.80;1.88;;;28.10;45.60;;;;;;5089247;28;20426;-84
2023/09/06 11:46:42;;;;;;;3.20;1.50;;;28.10;45.90;;;;;;5088466;28;20039;-83
2023/09/06 11:49:08;;;;;;;21.63;1.83;;;28.20;46.50;;;;;;5090226;28;20549;-84
2023/09/06 11:51:34;;;;;;;7.82;1.58;;;28.20;46.50;;;;;;5090268;28;20028;-84
2023/09/06 11:54:00;;;;;;;5.28;1.85;;;28.30;46.00;;;;;;5089958;28;20519;-84
2023/09/06 11:56:31;;;;;;;4.78;1.85;;;28.20;44.80;;;;;;5088644;28;20035;-83
2023/09/06 11:58:59;;;;;;;3.70;1.58;;;28.20;45.40;;;;;;5090046;28;20581;-84
2023/09/06 12:01:26;;;;;;;3.65;1.58;;;28.10;45.40;;;;;;5088404;28;20031;-83
2023/09/06 12:03:58;;;;;;;4.63;1.60;;;28.10;45.00;;;;;;5090031;28;20048;-85
2023/09/06 12:06:27;;;;;;;6.93;1.77;;;28.00;44.50;;;;;;5088996;28;20036;-83
2023/09/06 12:08:53;;;;;;;6.00;1.83;;;27.90;45.40;;;;;;5088573;28;20028;-83
2023/09/06 12:11:21;;;;;;;2.92;1.50;;;27.90;45.50;;;;;;5069903;28;20034;-83
2023/09/06 12:13:47;;;;;;;11.65;1.80;;;27.90;44.50;;;;;;5069494;28;20025;-84
2023/09/06 12:16:15;;;;;;;2.25;1.30;;;27.80;45.60;;;;;;5068368;28;20052;-83
2023/09/06 12:18:41;;;;;;;3.90;1.63;;;27.90;46.30;;;;;;5069697;28;20077;-84
2023/09/06 12:21:07;;;;;;;4.90;1.92;;;28.00;46.90;;;;;;5068436;28;20036;-81
2023/09/06 12:23:34;;;;;;;3.70;1.75;;;28.10;46.70;;;;;;5068379;28;20119;-84
2023/09/06 12:26:01;;;;;;;10.63;2.05;;;28.20;47.10;;;;;;5067967;28;20024;-83
2023/09/06 12:28:28;;;;;;;6.75;2.15;;;28.40;47.00;;;;;;5069485;28;20024;-83
2023/09/06 12:30:55;;;;;;;2.10;1.20;;;28.40;44.70;;;;;;5069839;28;20064;-84
2023/09/06 12:33:24;;;;;;;3.90;1.63;;;28.20;43.80;;;;;;5069469;28;20431;-84
2023/09/06 12:36:00;;;;;;;3.42;1.85;;;28.00;44.50;;;;;;5068469;28;20054;-84
2023/09/06 12:38:31;;;;;;;2.58;1.45;;;28.00;45.00;;;;;;5068125;28;20028;-83
2023/09/06 12:40:58;;;;;;;3.35;1.58;;;28.00;44.80;;;;;;5067688;28;20078;-85
2023/09/06 12:43:26;;;;;;;2.28;1.45;;;27.90;45.00;;;;;;5068477;28;20112;-85
2023/09/06 12:45:53;;;;;;;2.05;1.40;;;27.80;45.00;;;;;;5068958;28;20017;-83
2023/09/06 12:48:21;;;;;;;3.80;1.73;;;27.90;45.50;;;;;;5069363;28;20463;-83
2023/09/06 12:50:48;;;;;;;3.28;1.55;;;27.80;44.80;;;;;;5068108;28;20515;-83
2023/09/06 12:53:13;;;;;;;6.68;2.55;;;27.60;44.90;;;;;;5067917;28;20029;-82
2023/09/06 12:55:39;;;;;;;2.55;1.65;;;27.60;44.70;;;;;;5069546;28;20542;-82